Sontag, MS (39665)

20:34 CDT le 22 août 2014 (GMT -0500)
Stronghope | Change Station
CLOSE
Current Station
Stations météorologiques personnelles
Location: Wesson, MS
Altitude: 269 ft
Stations météo à proximité

Alt. 269 ft 31.72 °N, 90.24 °W | Updated 4 seconds ago

Clear
Ciel dégagé
82.5 ° F
Paraît 93 ° F
N
0.0
Vent Variable Vent de ONO
Gusts 0.0 mph

Aujourd'hui
Haut(e) -- | Bas -- ° F
--% Risque de précip.
Hier
Haut(e) -- | Bas -- ° F
Precip. -- pouce
6:30 AM 7:36 PM
Lune descendante, 6% visible
Pression 30.05 pouce
Visibilité 9.0 Miles terrestres
Nuages Ciel dégagé
indice de chaleur 93 ° F
Point de rosée 80 ° F
Humidité 91%
Précipitations 0.00 pouce
Profondeur de la couche neigeuse Non disponible.
UV 0 sur 12
Pollen 8.90 sur 12
Qualité de l'air Non disponible.
Flu Activity Non disponible.
METAR K1R7 230115Z AUTO 00000KT 9SM CLR 27/26 A3005 RMK AO2

More Conditions Fewer Conditions

Pression 30.05 pouce
Visibilité 9.0 Miles terrestres
Nuages Ciel dégagé
indice de chaleur 93 ° F
Point de rosée 80 ° F
Humidité 91%
Précipitations 0.00 pouce
Profondeur de la couche neigeuse Non disponible.
UV 0 sur 12
Pollen 8.90 sur 12
Qualité de l'air Non disponible.
Flu Activity Non disponible.
METAR K1R7 230115Z AUTO 00000KT 9SM CLR 27/26 A3005 RMK AO2

More Conditions Fewer Conditions

10-Day Weather Forecast

Almanac

Astronomie

Aug. 22, 2014 Lever Coucher
Temps réel 06:30 CDT 19:36 CDT
Crépuscule civil 06:05 CDT 20:01 CDT
Crépuscule nautique 05:35 CDT 20:31 CDT
Crépuscule astronomique 05:04 CDT 21:02 CDT
Lune 03:57 CDT (8/22) 17:41 CDT (8/22)
Durée de lumière visible 13h 56m
Longueur du jour
13h 06m
Tomorrow will be 1m 46s shorter.
Lune descendante, 6% of the Moon is Illuminated
Aujourd'hui
Lune descendante
août 25
Nouveau
Sep 2
Premier quartier
Sep 8
Pleine lune
Sep 15
Dernier quartier

Extrêmes aujourd'hui

State Highs State Lows

Community

WunderPhotos

Upload Photos

1,746,337 Photos téléchargées !

WunderBlogs® & News

Nearby

Épaisseur de neige

Station Depth Altitude
Pas de nouvelles chutes de neige

Activité sismique

Ville Distance Mag. Time & Date
No recent earthquake activity has been reported nearby.
Minimum magnitude displayed is 2.5.

Températures des eaux côtières

Lieu Température
Aucun rapport de station

Stations météo à proximité